Time;durP1;ratioP1;P1;durP2;ratioP2;P2;SDS_P1;SDS_P2;PMS_P1;PMS_P2;Temp;Humidity;BMP_temperature;BMP_pressure;BME280_temperature;BME280_humidity;BME280_pressure;Samples;Min_cycle;Max_cycle;Signal;HPM_P1;HPM_P2
2022/07/05 00:00:14;;;;;;;7.85;2.22;;;;;;;14.23;100.00;101161.69;5089355;28;20461;-88
2022/07/05 00:02:41;;;;;;;7.22;1.65;;;;;;;14.10;100.00;101160.56;5099154;28;20127;-88
2022/07/05 00:05:08;;;;;;;5.18;1.48;;;;;;;14.02;100.00;101147.72;5086208;28;20048;-88
2022/07/05 00:07:35;;;;;;;8.27;1.70;;;;;;;13.93;100.00;101170.06;5104647;28;20413;-87
2022/07/05 00:10:03;;;;;;;7.68;1.92;;;;;;;13.91;100.00;101163.16;5085606;28;20048;-88
2022/07/05 00:12:32;;;;;;;7.80;1.77;;;;;;;14.00;100.00;101168.88;5098202;28;20048;-88
2022/07/05 00:15:00;;;;;;;7.30;1.92;;;;;;;13.76;100.00;101154.19;5086171;28;20058;-88
2022/07/05 00:17:27;;;;;;;8.13;1.60;;;;;;;13.83;100.00;101156.47;5080955;28;20075;-88
2022/07/05 00:19:54;;;;;;;5.07;1.30;;;;;;;13.86;100.00;101152.84;5089323;28;20383;-88
2022/07/05 00:22:21;;;;;;;4.82;1.20;;;;;;;13.92;100.00;101173.63;5096178;28;20048;-87
2022/07/05 00:24:53;;;;;;;3.85;1.30;;;;;;;13.96;100.00;101171.72;5086971;28;20412;-87
2022/07/05 00:27:20;;;;;;;3.63;1.13;;;;;;;13.50;100.00;101123.75;5089261;28;20058;-87
2022/07/05 00:29:47;;;;;;;4.63;1.30;;;;;;;13.74;100.00;101145.47;5082134;28;20771;-88
2022/07/05 00:32:14;;;;;;;5.25;1.35;;;;;;;13.77;100.00;101174.31;5092270;28;20043;-87
2022/07/05 00:34:40;;;;;;;3.85;1.20;;;;;;;13.51;100.00;101112.28;5088812;28;20127;-87
2022/07/05 00:37:08;;;;;;;5.47;1.60;;;;;;;14.07;100.00;101181.75;5109465;28;20455;-88
2022/07/05 00:39:34;;;;;;;4.03;1.25;;;;;;;13.85;100.00;101177.47;5095679;28;20043;-87
2022/07/05 00:42:02;;;;;;;4.10;1.30;;;;;;;13.93;100.00;101166.59;5112379;28;20043;-88
2022/07/05 00:44:31;;;;;;;7.30;1.50;;;;;;;13.89;100.00;101172.91;5094881;28;20058;-87
2022/07/05 00:46:58;;;;;;;6.72;1.58;;;;;;;13.63;100.00;101173.16;5095387;28;20050;-87
2022/07/05 00:49:25;;;;;;;5.53;1.40;;;;;;;13.28;100.00;101149.16;5113351;28;20138;-88
2022/07/05 00:51:52;;;;;;;3.65;1.30;;;;;;;13.55;100.00;101180.50;5090487;28;20054;-87
2022/07/05 00:54:39;;;;;;;6.68;1.55;;;;;;;13.77;100.00;101192.72;5098182;28;20059;-87
2022/07/05 00:57:07;;;;;;;3.95;1.30;;;;;;;13.57;100.00;101180.44;5095867;28;20040;-88
2022/07/05 00:59:34;;;;;;;5.65;1.30;;;;;;;13.68;100.00;101194.81;5095949;28;20048;-87
2022/07/05 01:02:01;;;;;;;4.57;1.25;;;;;;;13.85;100.00;101193.25;5081227;28;20043;-87
2022/07/05 01:04:28;;;;;;;3.22;1.00;;;;;;;13.75;100.00;101177.00;5090551;28;20135;-87
2022/07/05 01:06:55;;;;;;;3.95;1.08;;;;;;;13.68;100.00;101176.41;5093108;28;20053;-87
2022/07/05 01:09:23;;;;;;;5.10;1.15;;;;;;;13.74;100.00;101187.59;5113025;28;20051;-87
2022/07/05 01:11:50;;;;;;;5.70;1.33;;;;;;;13.82;100.00;101203.91;5094431;28;20043;-87
2022/07/05 01:14:20;;;;;;;7.55;1.60;;;;;;;13.74;100.00;101198.13;5095578;28;20105;-87
2022/07/05 01:16:49;;;;;;;6.40;1.95;;;;;;;13.72;100.00;101198.19;5048963;28;1287000;-87
2022/07/05 01:19:17;;;;;;;10.07;1.40;;;;;;;13.62;100.00;101167.94;5118343;27;20044;-87
2022/07/05 01:21:46;;;;;;;4.00;1.40;;;;;;;13.73;100.00;101186.75;5088798;28;20127;-87
2022/07/05 01:24:15;;;;;;;6.40;1.13;;;;;;;13.89;100.00;101205.34;5096252;28;20059;-87
2022/07/05 01:26:45;;;;;;;4.85;1.20;;;;;;;13.80;100.00;101185.56;5096148;28;20492;-88
2022/07/05 01:29:12;;;;;;;6.50;1.38;;;;;;;13.76;100.00;101205.03;5079476;28;20052;-87
2022/07/05 01:31:40;;;;;;;5.43;1.20;;;;;;;13.74;100.00;101206.00;5102627;28;20051;-85
2022/07/05 01:34:07;;;;;;;5.13;1.20;;;;;;;13.83;100.00;101184.59;5083791;28;20043;-87
2022/07/05 01:36:35;;;;;;;5.57;1.27;;;;;;;13.90;100.00;101200.94;5087076;28;20052;-87
2022/07/05 01:39:07;;;;;;;3.30;1.20;;;;;;;13.86;100.00;101161.59;5092248;28;20519;-88
2022/07/05 01:41:34;;;;;;;5.82;1.55;;;;;;;13.88;100.00;101187.00;5088625;28;20048;-87
2022/07/05 01:44:02;;;;;;;10.23;2.05;;;;;;;13.89;100.00;101192.19;5092618;28;20047;-85
2022/07/05 01:46:33;;;;;;;5.03;1.10;;;;;;;13.99;100.00;101206.66;5095754;28;20087;-85
2022/07/05 01:49:04;;;;;;;4.20;1.20;;;;;;;13.92;100.00;101205.22;5096452;28;20404;-87
2022/07/05 01:51:44;;;;;;;3.35;1.00;;;;;;;14.02;100.00;101203.91;5092800;28;20048;-87
2022/07/05 01:54:11;;;;;;;6.57;1.17;;;;;;;14.07;100.00;101201.03;5081705;28;20051;-87
2022/07/05 01:56:38;;;;;;;3.92;1.25;;;;;;;13.71;100.00;101200.91;5093847;28;20044;-88
2022/07/05 01:59:06;;;;;;;4.55;1.10;;;;;;;13.59;100.00;101205.75;5094567;28;20047;-87
2022/07/05 02:01:38;;;;;;;8.75;1.35;;;;;;;13.72;100.00;101226.28;5092579;28;20058;-87
2022/07/05 02:04:07;;;;;;;3.58;1.27;;;;;;;13.74;100.00;101227.94;5084440;28;20447;-87
2022/07/05 02:06:35;;;;;;;6.05;1.42;;;;;;;13.61;100.00;101210.97;5095464;28;20058;-87
2022/07/05 02:09:04;;;;;;;6.10;1.30;;;;;;;13.72;100.00;101221.03;5088047;28;20050;-86
2022/07/05 02:11:31;;;;;;;6.07;1.25;;;;;;;13.46;100.00;101229.09;5076254;28;20059;-87
2022/07/05 02:13:58;;;;;;;10.13;1.40;;;;;;;13.55;100.00;101211.22;5080891;28;20061;-87
2022/07/05 02:16:25;;;;;;;5.13;1.30;;;;;;;13.71;100.00;101229.84;5095325;28;20052;-88
2022/07/05 02:18:53;;;;;;;3.20;1.15;;;;;;;13.55;100.00;101227.00;5088965;28;20089;-88
2022/07/05 02:21:20;;;;;;;3.03;1.13;;;;;;;13.51;100.00;101217.53;5094060;28;20056;-88
2022/07/05 02:23:47;;;;;;;3.25;1.10;;;;;;;13.46;100.00;101210.69;5094684;28;20046;-88
2022/07/05 02:26:14;;;;;;;5.05;1.27;;;;;;;13.31;100.00;101171.88;5090964;28;20051;-88
2022/07/05 02:28:42;;;;;;;5.80;1.30;;;;;;;13.71;100.00;101228.06;5095333;28;20054;-87
2022/07/05 02:31:09;;;;;;;3.67;1.20;;;;;;;13.62;100.00;101223.19;5095427;28;20484;-88
2022/07/05 02:33:36;;;;;;;3.20;1.10;;;;;;;13.67;100.00;101215.97;5093330;28;20572;-87
2022/07/05 02:36:10;;;;;;;4.35;1.15;;;;;;;13.64;100.00;101237.16;5080884;28;20400;-88
2022/07/05 02:38:37;;;;;;;3.03;0.90;;;;;;;13.75;100.00;101221.75;5095372;28;20047;-88
2022/07/05 02:41:07;;;;;;;4.68;1.05;;;;;;;13.65;100.00;101221.28;5098724;28;20466;-87
2022/07/05 02:43:34;;;;;;;2.78;1.15;;;;;;;13.88;100.00;101248.38;5093368;28;20158;-87
2022/07/05 02:46:03;;;;;;;2.85;0.90;;;;;;;13.82;100.00;101238.97;5094089;28;20043;-87
2022/07/05 02:48:30;;;;;;;5.03;1.02;;;;;;;13.63;100.00;101244.19;5074318;28;20534;-87
2022/07/05 02:50:57;;;;;;;2.22;1.00;;;;;;;13.80;100.00;101237.34;5091190;28;20051;-88
2022/07/05 02:53:24;;;;;;;4.00;1.20;;;;;;;13.62;100.00;101244.25;5093683;28;20059;-87
2022/07/05 02:55:51;;;;;;;5.15;1.20;;;;;;;13.95;100.00;101252.47;5094795;28;20052;-87
2022/07/05 02:58:18;;;;;;;3.60;1.23;;;;;;;13.78;100.00;101237.41;5091721;28;20665;-88
2022/07/05 03:00:47;;;;;;;3.63;1.08;;;;;;;13.56;100.00;101221.66;5087474;28;20047;-87
2022/07/05 03:03:15;;;;;;;3.10;1.10;;;;;;;13.75;100.00;101247.22;5100546;28;20533;-87
2022/07/05 03:05:42;;;;;;;5.18;1.30;;;;;;;13.66;100.00;101225.63;5092181;28;20047;-87
2022/07/05 03:08:09;;;;;;;3.72;1.10;;;;;;;13.42;100.00;101235.41;5079744;28;20048;-87
2022/07/05 03:10:36;;;;;;;5.28;1.17;;;;;;;13.38;100.00;101230.34;5092181;28;20522;-88
2022/07/05 03:13:03;;;;;;;3.55;0.90;;;;;;;13.61;100.00;101258.31;5111431;28;20113;-87
2022/07/05 03:15:30;;;;;;;3.60;1.20;;;;;;;13.54;100.00;101248.97;5085956;28;20560;-87
2022/07/05 03:17:57;;;;;;;3.28;1.10;;;;;;;13.47;100.00;101228.19;5086816;28;20071;-87
2022/07/05 03:20:24;;;;;;;6.50;1.00;;;;;;;13.66;100.00;101235.28;5087722;28;20048;-88
2022/07/05 03:22:51;;;;;;;2.47;0.90;;;;;;;13.53;100.00;101242.84;5105157;28;20043;-88
2022/07/05 03:25:18;;;;;;;3.50;1.10;;;;;;;13.68;100.00;101257.13;5094516;28;20061;-87
2022/07/05 03:27:45;;;;;;;1.35;0.80;;;;;;;13.46;100.00;101263.28;5095015;28;20060;-88
2022/07/05 03:30:12;;;;;;;5.35;1.00;;;;;;;13.34;100.00;101248.03;5091237;28;20052;-88
2022/07/05 03:32:39;;;;;;;3.97;1.00;;;;;;;13.52;100.00;101248.19;5085668;28;20389;-88
2022/07/05 03:35:06;;;;;;;3.30;1.10;;;;;;;13.46;100.00;101251.94;5094096;28;20058;-87
2022/07/05 03:37:33;;;;;;;3.47;0.95;;;;;;;13.52;100.00;101259.56;5093932;28;20051;-88
2022/07/05 03:40:00;;;;;;;4.68;1.58;;;;;;;13.31;100.00;101248.13;5094494;28;20061;-88
2022/07/05 03:42:26;;;;;;;5.32;1.27;;;;;;;13.48;100.00;101258.81;5092778;28;20055;-87
2022/07/05 03:44:53;;;;;;;4.60;1.20;;;;;;;13.38;100.00;101249.59;5082182;28;20052;-88
2022/07/05 03:47:20;;;;;;;6.60;1.30;;;;;;;13.56;100.00;101276.06;5091731;28;20130;-87
2022/07/05 03:49:47;;;;;;;3.70;1.08;;;;;;;13.63;100.00;101264.34;5084816;28;20113;-87
2022/07/05 03:52:14;;;;;;;3.05;1.00;;;;;;;13.55;100.00;101266.47;5093491;28;20052;-88
2022/07/05 03:54:43;;;;;;;3.40;1.05;;;;;;;13.64;100.00;101274.81;5086568;28;20048;-88
2022/07/05 03:57:11;;;;;;;2.70;1.00;;;;;;;13.87;100.00;101291.44;5093001;28;20055;-87
2022/07/05 03:59:38;;;;;;;2.58;1.00;;;;;;;13.74;100.00;101279.69;5111802;28;20128;-88
2022/07/05 04:02:06;;;;;;;5.55;1.27;;;;;;;13.67;100.00;101263.34;5097336;28;20128;-87
2022/07/05 04:04:33;;;;;;;3.40;1.13;;;;;;;13.69;100.00;101279.91;5115978;28;20047;-88
2022/07/05 04:07:00;;;;;;;3.92;1.13;;;;;;;13.79;100.00;101290.88;5097785;28;20059;-88
2022/07/05 04:09:27;;;;;;;3.33;1.00;;;;;;;13.83;100.00;101268.81;5098111;28;20062;-87
2022/07/05 04:11:54;;;;;;;3.13;1.10;;;;;;;14.03;100.00;101275.84;5093045;28;20040;-88
2022/07/05 04:14:21;;;;;;;2.55;1.10;;;;;;;14.20;100.00;101288.25;5097405;28;20043;-88
2022/07/05 04:16:48;;;;;;;5.30;1.17;;;;;;;14.62;100.00;101268.84;5097973;28;20058;-88
2022/07/05 04:19:16;;;;;;;2.42;0.90;;;;;;;15.38;100.00;101266.09;5097413;28;20051;-87
2022/07/05 04:21:42;;;;;;;3.42;0.98;;;;;;;16.07;100.00;101285.56;5094484;28;20051;-88
2022/07/05 04:24:10;;;;;;;6.53;1.40;;;;;;;15.60;100.00;101287.03;5097756;28;20397;-88
2022/07/05 04:26:37;;;;;;;3.58;1.10;;;;;;;15.28;100.00;101305.28;5085082;28;20072;-88
2022/07/05 04:29:04;;;;;;;4.00;1.00;;;;;;;15.15;100.00;101302.38;5086719;28;20052;-87
2022/07/05 04:31:31;;;;;;;5.18;1.00;;;;;;;14.75;100.00;101288.44;5092932;28;20054;-87
2022/07/05 04:33:58;;;;;;;4.13;1.13;;;;;;;14.59;100.00;101285.66;5097923;28;20047;-87
2022/07/05 04:36:25;;;;;;;3.22;0.82;;;;;;;14.59;100.00;101308.53;5097151;28;20052;-87
2022/07/05 04:38:51;;;;;;;4.28;1.00;;;;;;;14.43;100.00;101316.22;5096746;28;20043;-88
2022/07/05 04:41:18;;;;;;;2.13;0.90;;;;;;;14.08;100.00;101284.38;5083395;28;20418;-88
2022/07/05 04:43:45;;;;;;;2.58;1.00;;;;;;;13.98;100.00;101294.44;5096847;28;20531;-88
2022/07/05 04:46:12;;;;;;;3.08;1.02;;;;;;;14.05;100.00;101281.88;5114787;28;20051;-88
2022/07/05 04:48:38;;;;;;;4.85;1.30;;;;;;;13.81;100.00;101313.59;5096996;28;20103;-88
2022/07/05 04:51:05;;;;;;;4.43;1.00;;;;;;;14.28;100.00;101336.19;5097152;28;20393;-88
2022/07/05 04:53:32;;;;;;;4.13;0.95;;;;;;;13.95;100.00;101317.41;5095925;28;20039;-88
2022/07/05 04:55:59;;;;;;;4.88;1.15;;;;;;;13.95;100.00;101327.94;5111815;28;20047;-88
2022/07/05 04:58:26;;;;;;;2.38;0.80;;;;;;;13.84;100.00;101325.78;5096557;28;20504;-87
2022/07/05 05:00:53;;;;;;;4.40;1.15;;;;;;;13.84;100.00;101316.09;5098698;28;20039;-88
2022/07/05 05:03:20;;;;;;;0.98;0.70;;;;;;;13.95;100.00;101331.47;5098491;28;20139;-87
2022/07/05 05:05:48;;;;;;;4.18;1.10;;;;;;;13.86;100.00;101327.44;5096401;28;20044;-88
2022/07/05 05:08:14;;;;;;;4.63;0.85;;;;;;;14.26;100.00;101342.47;5096729;28;20051;-88
2022/07/05 05:10:41;;;;;;;5.70;1.10;;;;;;;14.30;100.00;101350.13;5096537;28;20043;-88
2022/07/05 05:13:08;;;;;;;4.05;1.00;;;;;;;14.21;100.00;101347.91;5090715;28;20484;-88
2022/07/05 05:15:35;;;;;;;3.08;1.10;;;;;;;14.12;100.00;101328.09;5096569;28;20051;-88
2022/07/05 05:18:02;;;;;;;3.80;1.15;;;;;;;14.26;100.00;101358.25;5096258;28;20078;-88
2022/07/05 05:20:29;;;;;;;4.25;1.05;;;;;;;13.98;100.00;101326.03;5114830;28;20047;-87
2022/07/05 05:22:56;;;;;;;2.80;0.88;;;;;;;14.02;100.00;101314.47;5110363;28;20515;-87
2022/07/05 05:25:23;;;;;;;3.03;0.98;;;;;;;14.38;100.00;101349.81;5089257;28;20052;-88
2022/07/05 05:27:53;;;;;;;3.95;1.13;;;;;;;14.39;100.00;101370.81;5076051;28;20460;-88
2022/07/05 05:30:19;;;;;;;4.18;0.90;;;;;;;14.48;100.00;101364.28;5089801;28;20054;-87
2022/07/05 05:32:46;;;;;;;3.92;1.00;;;;;;;14.58;100.00;101381.44;5088001;28;20048;-88
2022/07/05 05:35:13;;;;;;;5.15;1.25;;;;;;;14.78;100.00;101387.59;5095837;28;20053;-88
2022/07/05 05:37:48;;;;;;;3.42;1.10;;;;;;;14.67;100.00;101388.09;5095588;28;20051;-88
2022/07/05 05:40:16;;;;;;;4.28;1.00;;;;;;;14.59;100.00;101392.84;5081761;28;20051;-88
2022/07/05 05:42:43;;;;;;;6.38;1.30;;;;;;;14.42;100.00;101383.00;5112788;28;20520;-88
2022/07/05 05:45:10;;;;;;;4.28;1.00;;;;;;;14.42;100.00;101378.59;5096023;28;20051;-87
2022/07/05 05:47:47;;;;;;;4.15;1.00;;;;;;;15.12;100.00;101384.31;5095729;28;20053;-87
2022/07/05 05:50:18;;;;;;;6.82;1.55;;;;;;;15.38;100.00;101361.09;5095330;28;20065;-88
2022/07/05 05:52:45;;;;;;;5.20;1.52;;;;;;;15.00;100.00;101390.97;5094656;28;20123;-88
2022/07/05 05:55:12;;;;;;;4.30;1.00;;;;;;;14.86;100.00;101382.84;5088560;28;20050;-89
2022/07/05 05:57:39;;;;;;;5.22;1.05;;;;;;;15.22;100.00;101382.06;5113492;28;20062;-88
2022/07/05 06:00:07;;;;;;;9.35;1.15;;;;;;;15.35;100.00;101396.41;5088844;28;20040;-86
2022/07/05 06:02:34;;;;;;;5.82;1.10;;;;;;;15.28;100.00;101368.63;5088974;28;20043;-88
2022/07/05 06:05:02;;;;;;;6.13;1.30;;;;;;;15.17;100.00;101416.59;5078996;28;20046;-88
2022/07/05 06:07:29;;;;;;;2.88;0.90;;;;;;;15.02;100.00;101416.44;5078128;28;20486;-88
2022/07/05 06:09:55;;;;;;;6.68;1.13;;;;;;;15.25;100.00;101404.84;5087920;28;20054;-88
2022/07/05 06:12:22;;;;;;;6.10;1.20;;;;;;;14.65;100.00;101412.81;5108359;28;20061;-88
2022/07/05 06:14:49;;;;;;;6.53;1.35;;;;;;;14.08;100.00;101417.81;5078269;28;20055;-88
2022/07/05 06:17:16;;;;;;;5.43;1.05;;;;;;;14.12;100.00;101420.25;5103855;28;20058;-87
2022/07/05 06:19:43;;;;;;;4.97;1.17;;;;;;;14.30;100.00;101433.59;5076123;28;20048;-88
2022/07/05 06:22:10;;;;;;;5.32;1.25;;;;;;;14.37;100.00;101433.25;5083320;28;20164;-87
2022/07/05 06:24:37;;;;;;;5.20;1.15;;;;;;;14.19;100.00;101429.63;5083335;28;20039;-88
2022/07/05 06:27:04;;;;;;;6.70;1.50;;;;;;;13.91;100.00;101442.19;5082444;28;20054;-88
2022/07/05 06:29:30;;;;;;;6.25;1.50;;;;;;;13.99;100.00;101396.22;5098479;28;20062;-87
2022/07/05 06:31:59;;;;;;;7.78;1.90;;;;;;;14.96;100.00;101389.41;5088026;28;20054;-88
2022/07/05 06:34:26;;;;;;;5.80;1.60;;;;;;;16.00;100.00;101438.22;5094742;28;20084;-88
2022/07/05 06:36:53;;;;;;;6.00;1.33;;;;;;;16.25;100.00;101447.56;5107828;28;20052;-88
2022/07/05 06:39:20;;;;;;;8.88;1.55;;;;;;;15.37;100.00;101451.75;5076008;28;20474;-88
2022/07/05 06:41:47;;;;;;;7.22;1.30;;;;;;;15.37;100.00;101475.50;5091856;28;20055;-88
2022/07/05 06:44:13;;;;;;;7.15;1.50;;;;;;;14.65;100.00;101474.28;5101388;28;20044;-88
2022/07/05 06:47:00;;;;;;;7.32;1.42;;;;;;;15.05;100.00;101472.53;5090181;28;20065;-87
2022/07/05 06:49:27;;;;;;;12.68;2.30;;;;;;;15.54;100.00;101486.09;5084286;28;20050;-88
2022/07/05 06:51:54;;;;;;;12.20;1.88;;;;;;;15.62;100.00;101469.94;5102155;28;20047;-88
2022/07/05 06:54:20;;;;;;;6.15;1.38;;;;;;;15.91;100.00;101463.28;5080235;28;20375;-89
2022/07/05 06:57:07;;;;;;;5.18;1.10;;;;;;;15.86;100.00;101462.63;5086377;28;20807;-88
2022/07/05 06:59:54;;;;;;;9.32;1.48;;;;;;;16.11;100.00;101482.59;5096728;28;20059;-87
2022/07/05 07:02:22;;;;;;;7.78;1.30;;;;;;;15.49;100.00;101492.53;5110593;28;20135;-89
2022/07/05 07:04:50;;;;;;;6.85;1.30;;;;;;;15.31;100.00;101496.88;5094657;28;20093;-88
2022/07/05 07:10:22;;;;;;;6.63;1.40;;;;;;;15.39;100.00;101500.03;5112241;28;20078;-88
2022/07/05 07:12:54;;;;;;;6.28;1.30;;;;;;;15.21;100.00;101506.13;5090496;28;20052;-88
2022/07/05 07:15:21;;;;;;;12.82;2.38;;;;;;;15.27;100.00;101498.78;5088558;28;20404;-88
2022/07/05 07:17:48;;;;;;;7.80;1.38;;;;;;;15.62;100.00;101512.16;5093298;28;20052;-88
2022/07/05 07:20:15;;;;;;;6.00;1.20;;;;;;;16.77;100.00;101494.25;5090171;28;20043;-88
2022/07/05 07:22:42;;;;;;;5.75;1.50;;;;;;;16.84;100.00;101463.97;5106632;28;20078;-86
2022/07/05 07:25:11;;;;;;;4.30;1.00;;;;;;;16.86;100.00;101485.91;5110315;28;20081;-88
2022/07/05 07:27:49;;;;;;;3.80;0.98;;;;;;;17.52;100.00;101485.00;5109805;28;20047;-85
2022/07/05 07:30:29;;;;;;;6.25;1.30;;;;;;;18.30;100.00;101487.72;5108541;28;20075;-85
2022/07/05 07:32:59;;;;;;;5.00;1.20;;;;;;;17.94;100.00;101480.09;5106993;28;20124;-87
2022/07/05 07:35:26;;;;;;;3.70;1.15;;;;;;;18.76;92.48;101515.97;5103151;28;20574;-88
2022/07/05 07:37:56;;;;;;;6.28;1.10;;;;;;;18.08;91.17;101513.75;5126996;28;20059;-86
2022/07/05 07:40:37;;;;;;;6.90;1.40;;;;;;;17.30;100.00;101540.06;5108523;28;20107;-88
2022/07/05 07:43:04;;;;;;;6.50;1.27;;;;;;;16.49;100.00;101522.13;5106491;28;20087;-88
2022/07/05 07:45:38;;;;;;;4.40;0.90;;;;;;;15.95;100.00;101551.13;5124059;28;20047;-87
2022/07/05 07:48:10;;;;;;;4.22;0.90;;;;;;;16.27;100.00;101544.34;5113105;28;20061;-88
2022/07/05 07:50:42;;;;;;;3.67;1.00;;;;;;;16.35;100.00;101549.22;5111586;28;20036;-86
2022/07/05 07:53:24;;;;;;;5.70;0.98;;;;;;;16.49;100.00;101533.53;5114093;28;20095;-87
2022/07/05 07:56:05;;;;;;;4.35;0.98;;;;;;;16.14;100.00;101535.28;5111310;28;20477;-87
2022/07/05 07:58:47;;;;;;;4.80;1.00;;;;;;;16.55;100.00;101542.09;5126206;28;20062;-87
2022/07/05 08:01:28;;;;;;;8.05;0.90;;;;;;;16.31;100.00;101534.47;5086921;28;20061;-87
2022/07/05 08:03:55;;;;;;;4.40;0.85;;;;;;;15.90;100.00;101566.34;5099436;28;20035;-85
2022/07/05 08:06:27;;;;;;;3.70;0.98;;;;;;;15.14;100.00;101521.38;5111603;28;20119;-88
2022/07/05 08:09:07;;;;;;;3.22;0.95;;;;;;;15.24;100.00;101533.22;5123752;28;20048;-87
2022/07/05 08:11:43;;;;;;;6.72;1.20;;;;;;;15.21;100.00;101577.34;5124043;28;20047;-87
2022/07/05 08:14:15;;;;;;;3.05;0.90;;;;;;;14.85;100.00;101588.56;5100078;28;20042;-87
2022/07/05 08:27:35;;;;;;;2.80;0.80;;;;;;;14.54;100.00;101540.56;5179692;27;20371;-88
2022/07/05 08:30:16;;;;;;;4.28;0.90;;;;;;;15.32;100.00;101598.84;5134210;28;20067;-86
2022/07/05 08:32:48;;;;;;;;;;;;;;;16.21;100.00;101593.97;5118080;28;20077;-87
2022/07/05 08:35:16;;;;;;;2.63;0.80;;;;;;;16.07;100.00;101562.91;5144848;27;19987;-87
2022/07/05 08:37:57;;;;;;;3.17;0.80;;;;;;;16.47;100.00;101561.00;5136333;27;20043;-86
2022/07/05 08:40:26;;;;;;;2.70;1.00;;;;;;;16.85;100.00;101582.03;5161267;27;20032;-86
2022/07/05 08:42:58;;;;;;;5.18;1.00;;;;;;;16.11;100.00;101580.31;5131085;27;20177;-85
2022/07/05 08:45:28;;;;;;;5.50;0.80;;;;;;;16.08;100.00;101578.69;5135661;27;20044;-86
2022/07/05 08:47:59;;;;;;;2.13;0.80;;;;;;;16.75;100.00;101601.91;5144450;27;20044;-87
2022/07/05 08:50:40;;;;;;;4.55;0.70;;;;;;;16.79;100.00;101591.13;5132600;27;20078;-87
2022/07/05 08:53:09;;;;;;;4.38;0.75;;;;;;;17.18;100.00;101613.03;5131352;27;20047;-86
2022/07/05 08:55:50;;;;;;;5.00;1.10;;;;;;;16.58;100.00;101585.09;5138183;27;20051;-87
2022/07/05 08:58:31;;;;;;;5.68;1.08;;;;;;;16.43;100.00;101620.22;5149245;27;20043;-87
2022/07/05 09:01:13;;;;;;;4.53;0.70;;;;;;;17.43;100.00;101610.78;5118675;27;20054;-86
2022/07/05 09:03:50;;;;;;;4.25;1.10;;;;;;;17.71;100.00;101604.03;5128106;27;20106;-85
2022/07/05 09:06:24;;;;;;;4.25;0.90;;;;;;;17.90;100.00;101584.53;5138592;27;20069;-87
2022/07/05 09:08:55;;;;;;;4.53;1.15;;;;;;;18.40;93.73;101610.84;5130700;28;20565;-86
2022/07/05 09:11:39;;;;;;;3.95;1.25;;;;;;;17.52;100.00;101625.34;5128138;28;20045;-86
2022/07/05 09:14:24;;;;;;;2.35;0.88;;;;;;;17.47;100.00;101608.84;5136535;27;20035;-87
2022/07/05 09:17:05;;;;;;;5.80;1.00;;;;;;;17.17;97.73;101567.16;5131078;28;20058;-85
2022/07/05 09:19:39;;;;;;;4.57;1.00;;;;;;;17.38;93.22;101588.16;5121005;28;20054;-88
2022/07/05 09:22:08;;;;;;;4.10;0.90;;;;;;;16.48;99.05;101562.69;5142524;28;20040;-87
2022/07/05 09:24:49;;;;;;;3.58;1.05;;;;;;;17.36;90.74;101564.41;5123276;27;20044;-86
2022/07/05 09:27:32;;;;;;;2.92;0.80;;;;;;;17.63;85.58;101606.22;5129940;27;20047;-87
2022/07/05 09:30:24;;;;;;;4.15;0.93;;;;;;;16.88;85.28;101595.97;5110936;28;20048;-87
2022/07/05 09:33:16;;;;;;;3.42;1.00;;;;;;;17.79;80.92;101599.16;5119523;28;20056;-85
2022/07/05 09:36:01;;;;;;;2.28;0.70;;;;;;;18.38;78.16;101570.31;5125498;28;20104;-89
2022/07/05 09:38:50;;;;;;;5.03;0.85;;;;;;;18.47;73.19;101637.88;5135649;28;20036;-88
2022/07/05 09:41:31;;;;;;;4.80;1.08;;;;;;;17.96;72.66;101630.09;5093183;28;20031;-88
2022/07/05 09:44:25;;;;;;;6.63;1.00;;;;;;;17.67;74.00;101567.19;5130668;28;20080;-88
2022/07/05 09:47:16;;;;;;;2.83;1.05;;;;;;;18.47;71.28;101637.00;5111589;28;20039;-88
2022/07/05 09:50:03;;;;;;;3.20;0.80;;;;;;;17.86;71.37;101639.47;5118559;28;20489;-88
2022/07/05 09:52:44;;;;;;;4.70;0.82;;;;;;;17.57;77.18;101633.91;5115954;28;20054;-88
2022/07/05 09:55:25;;;;;;;2.60;0.73;;;;;;;18.17;74.05;101571.56;5130572;28;20504;-86
2022/07/05 09:57:53;;;;;;;4.68;1.02;;;;;;;18.79;74.63;101643.16;5125960;27;20112;-88
2022/07/05 10:00:35;;;;;;;5.45;0.93;;;;;;;18.02;75.43;101639.47;5112680;27;20076;-88
2022/07/05 10:03:15;;;;;;;6.50;1.23;;;;;;;17.78;79.48;101641.66;5100044;28;20072;-89
2022/07/05 10:06:11;;;;;;;6.45;0.82;;;;;;;17.68;84.75;101613.94;5114692;28;20039;-89
2022/07/05 10:08:53;;;;;;;4.45;0.80;;;;;;;18.27;78.86;101601.03;5118251;28;20098;-87
2022/07/05 10:11:24;;;;;;;3.60;1.02;;;;;;;18.67;77.04;101633.25;5114625;28;20075;-86
2022/07/05 10:14:12;;;;;;;3.70;0.80;;;;;;;17.85;73.96;101590.06;5100161;28;20023;-85
2022/07/05 10:16:59;;;;;;;3.42;0.80;;;;;;;18.81;72.36;101622.69;5101484;28;20031;-84
2022/07/05 10:19:46;;;;;;;2.13;0.70;;;;;;;19.05;69.29;101635.47;5103238;28;20067;-87
2022/07/05 10:22:27;;;;;;;3.85;0.77;;;;;;;18.54;67.14;101594.16;5101436;28;20148;-87
2022/07/05 10:25:08;;;;;;;1.92;0.73;;;;;;;18.68;68.31;101653.50;5109928;28;20042;-87
2022/07/05 10:27:53;;;;;;;1.88;0.65;;;;;;;18.09;66.41;101654.09;5112532;28;20056;-86
2022/07/05 10:30:35;;;;;;;3.85;0.75;;;;;;;18.74;65.89;101632.78;5132694;28;20060;-86
2022/07/05 10:33:24;;;;;;;4.30;1.70;;;;;;;18.67;66.55;101659.75;5112643;28;20055;-86
2022/07/05 10:36:07;;;;;;;3.13;0.90;;;;;;;19.16;64.43;101641.88;5117709;28;20075;-86
2022/07/05 10:38:47;;;;;;;4.13;1.00;;;;;;;19.53;65.38;101650.28;5133501;28;20038;-86
2022/07/05 10:41:31;;;;;;;2.20;0.90;;;;;;;19.67;63.03;101640.59;5114380;28;20044;-84
2022/07/05 10:44:26;;;;;;;4.22;0.95;;;;;;;19.63;63.18;101665.66;5111512;28;20052;-87
2022/07/05 10:47:11;;;;;;;5.18;1.35;;;;;;;19.43;65.32;101633.19;5123877;28;20043;-87
2022/07/05 10:50:04;;;;;;;3.97;0.80;;;;;;;19.66;63.18;101662.81;5110160;28;20042;-87
2022/07/05 10:53:01;;;;;;;2.53;0.77;;;;;;;20.10;65.02;101664.53;5103704;28;20118;-86
2022/07/05 10:55:51;;;;;;;6.20;0.80;;;;;;;19.05;64.07;101680.59;5126360;28;20048;-84
2022/07/05 10:58:36;;;;;;;3.97;0.90;;;;;;;19.25;63.77;101696.22;5122487;28;20075;-86
2022/07/05 11:01:20;;;;;;;2.40;0.70;;;;;;;18.92;65.49;101696.38;5115965;28;20043;-86
2022/07/05 11:04:01;;;;;;;3.20;0.85;;;;;;;18.84;65.35;101693.31;5131580;28;20103;-85
2022/07/05 11:06:43;;;;;;;1.70;0.73;;;;;;;18.32;65.74;101703.22;5118846;28;20100;-87
2022/07/05 11:09:24;;;;;;;3.90;0.90;;;;;;;18.52;66.60;101701.25;5104352;28;20039;-87
2022/07/05 11:12:06;;;;;;;4.25;0.95;;;;;;;18.45;66.38;101682.19;5112379;28;20048;-86
2022/07/05 11:14:48;;;;;;;2.80;0.70;;;;;;;18.24;67.45;101713.41;5118535;28;20051;-87
2022/07/05 11:17:32;;;;;;;3.33;1.50;;;;;;;17.91;68.54;101714.25;5114001;28;20044;-87
2022/07/05 11:20:26;;;;;;;4.28;1.02;;;;;;;17.75;74.25;101729.22;5117527;28;20070;-87
2022/07/05 11:23:12;;;;;;;3.38;0.75;;;;;;;17.29;74.41;101727.13;5117230;28;20058;-83
2022/07/05 11:25:53;;;;;;;3.05;0.80;;;;;;;17.33;75.75;101728.66;5122245;27;20051;-83
2022/07/05 11:28:44;;;;;;;3.65;0.80;;;;;;;17.80;75.89;101721.88;5120600;28;20051;-87
2022/07/05 11:31:41;;;;;;;4.05;1.10;;;;;;;17.45;76.81;101711.31;5131585;28;20051;-87
2022/07/05 11:34:33;;;;;;;4.47;1.13;;;;;;;17.11;81.72;101670.69;5126224;28;20066;-87
2022/07/05 11:37:13;;;;;;;5.78;0.93;;;;;;;18.18;76.76;101734.91;5081134;28;20124;-88
2022/07/05 11:40:14;;;;;;;3.33;0.93;;;;;;;17.62;77.06;101729.00;5108644;28;20056;-87
2022/07/05 11:42:48;;;;;;;1.75;0.60;;;;;;;17.85;74.51;101746.34;5094660;28;20047;-87
2022/07/05 11:45:15;;;;;;;5.68;1.10;;;;;;;17.78;73.94;101734.38;5095189;28;20050;-87
2022/07/05 11:47:42;;;;;;;4.47;0.70;;;;;;;18.02;74.06;101727.81;5096137;28;20062;-87
2022/07/05 11:50:11;;;;;;;6.88;0.70;;;;;;;17.93;72.30;101753.91;5090570;28;20059;-87
2022/07/05 11:52:39;;;;;;;5.82;1.08;;;;;;;17.24;74.60;101702.66;5094701;28;20047;-88
2022/07/05 11:55:10;;;;;;;2.63;0.70;;;;;;;17.58;75.21;101730.06;5095145;28;20134;-83